Ocean Jupiter — CFK3107 — position and weather

sailwx.info

Track history (hours):
 
Tides and Currents Weather Stations Pressure Air Temp Water Temp Dewpoint Dewpoint Depression Visibility Wind Speed Wind Dir Waves Ship Positions

Ocean Jupiter

Last reported at 2015-Oct-29 03:30 UTC. Time now 2016-Feb-07 08:36 UTC.
Position N 46°16' W 072°42'.
Warning: this ship's position is months out of date.

Length 24 m; draft 3.2 m.

Type: Tug. MMSI: 316008255.

Date/timePositionNaut miles runAvg speedWind from/ knotsBaromVisibWave heightAir tempDewpointWater temp
2015-Oct-29 03:30N 46°16' W 072°42'7 7.9
2015-Oct-29 02:33N 46°20' W 072°33'0 0.0
2015-Oct-29 01:33N 46°20' W 072°33'2 1.5
2015-Oct-29 00:33N 46°19' W 072°34'  
2015-Oct-22 02:33N 46°16' W 072°38'6 5.7
2015-Oct-22 01:33N 46°20' W 072°32'3 3.1
2015-Oct-22 00:33N 46°18' W 072°35'4 0.2
2015-Oct-21 00:33N 46°16' W 072°39'6 6.2
2015-Oct-20 23:33N 46°20' W 072°33'0 0.0
2015-Oct-20 22:33N 46°20' W 072°33'2 2.1
2015-Oct-20 21:33N 46°18' W 072°34'  
Track history (hours):
 
Tides and Currents Weather Stations Pressure Air Temp Water Temp Dewpoint Dewpoint Depression Visibility Wind Speed Wind Dir Waves Ship Positions

Ocean Jupiter

Last reported at 2015-Oct-29 03:30 UTC. Time now 2016-Feb-07 08:36 UTC.
Position N 46°16' W 072°42'.
Warning: this ship's position is months out of date.

Length 24 m; draft 3.2 m.

Type: Tug. MMSI: 316008255.

Date/timePositionNaut miles runAvg speedWind from/ knotsBaromVisibWave heightAir tempDewpointWater temp
2015-Oct-29 03:30N 46°16' W 072°42'7 7.9
2015-Oct-29 02:33N 46°20' W 072°33'0 0.0
2015-Oct-29 01:33N 46°20' W 072°33'2 1.5
2015-Oct-29 00:33N 46°19' W 072°34'  
2015-Oct-22 02:33N 46°16' W 072°38'6 5.7
2015-Oct-22 01:33N 46°20' W 072°32'3 3.1
2015-Oct-22 00:33N 46°18' W 072°35'4 0.2
2015-Oct-21 00:33N 46°16' W 072°39'6 6.2
2015-Oct-20 23:33N 46°20' W 072°33'0 0.0
2015-Oct-20 22:33N 46°20' W 072°33'2 2.1
2015-Oct-20 21:33N 46°18' W 072°34'  

Dump ship's entire track history